Flight Track Log - Related Links

Times and Time Zones

All times are in EDT time to prevent confusion due to time zone crossing. See the EGF3681 flight status page for this flight to view local times or setup timezone preferences in your user account.

Time Position Orientation Groundspeed Altitude Reporting Facility
EDT Latitude Longitude Course Direction KTS MPH feet Rate Location/Type
Wed 11:01:00 PM 41.8041 -87.5740 95° East  Level Estimated
Wed 11:01:07 PM 42.0490 -87.8210 68° East 100 115 6,100  Level FlightAware ADS-B
Wed 11:01:37 PM 42.0420 -87.7740 101° East 264 304 7,100 1,071 Climbing FlightAware ADS-B
Wed 11:02:00 PM 41.8415 -87.4473 68° East  Level FlightAware Approximate
Wed 11:02:03 PM 42.0360 -87.7390 103° East 264 304 7,100  Level FlightAware ADS-B
Wed 11:06:12 PM 41.9700 -87.2500 100° East 351 404 15,400 1,883 Climbing FlightAware ADS-B
Wed 11:07:12 PM 41.9420 -87.1240 107° East 371 427 16,800 1,600 Climbing FlightAware ADS-B
Wed 11:07:42 PM 41.9060 -87.0730 133° Southeast 391 450 17,800 1,875 Climbing FlightAware ADS-B
Wed 11:08:32 PM 41.8500 -86.9970 135° Southeast 372 428 19,300 1,800 Climbing FlightAware ADS-B
Wed 11:08:52 PM 41.8280 -86.9640 132° Southeast 358 412 19,900 1,300 Climbing FlightAware ADS-B
Wed 11:09:32 PM 41.7800 -86.8940 133° Southeast 378 435 20,600 1,642 Climbing FlightAware ADS-B
Wed 11:10:38 PM 41.7040 -86.7810 132° Southeast 369 425 22,800 1,600 Climbing FlightAware ADS-B
Wed 11:11:02 PM 41.6790 -86.7440 132° Southeast 372 428 23,000 222 Climbing FlightAware ADS-B
Wed 11:11:32 PM 41.6340 -86.6780 132° Southeast 380 437 23,000  Level FlightAware ADS-B
Wed 11:12:02 PM 41.5980 -86.6260 133° Southeast 457 526 23,000  Level FlightAware ADS-B
Wed 11:12:32 PM 41.5560 -86.5640 132° Southeast 424 488 23,000  Level FlightAware ADS-B
Wed 11:13:02 PM 41.5140 -86.5020 132° Southeast 460 529 23,000  Level FlightAware ADS-B
Wed 11:13:27 PM 41.4760 -86.4470 133° Southeast 459 528 23,000  Level FlightAware ADS-B
Wed 11:14:17 PM 41.4010 -86.3360 132° Southeast 470 541 23,000  Level FlightAware ADS-B
Wed 11:14:27 PM 41.3860 -86.3180 138° Southeast 600 690 23,000  Level FlightAware ADS-B
Wed 11:15:22 PM 41.3060 -86.2020 133° Southeast 600 690 23,000  Level FlightAware ADS-B
Wed 11:16:07 PM 41.2360 -86.1020 133° Southeast 496 571 23,000  Level FlightAware ADS-B
Wed 11:16:42 PM 41.1770 -86.0030 128° Southeast 556 640 23,000  Level FlightAware ADS-B
Wed 11:17:07 PM 41.1520 -85.9850 152° Southeast 556 640 23,000  Level FlightAware ADS-B
Wed 11:17:27 PM 41.1150 -85.9270 130° Southeast 502 578 23,000  Level FlightAware ADS-B
Wed 11:18:28 PM 41.0450 -85.8270 133° Southeast 462 532 23,000  Level FlightAware ADS-B
Wed 11:19:17 PM 40.9540 -85.6990 133° Southeast 555 639 23,000  Level FlightAware ADS-B
Wed 11:20:08 PM 40.8820 -85.5860 130° Southeast 555 639 23,000  Level FlightAware ADS-B
Wed 11:21:08 PM 40.7980 -85.4530 130° Southeast 555 639 23,000  Level FlightAware ADS-B
Wed 11:21:33 PM 40.7630 -85.3980 130° Southeast 555 639 23,000  Level FlightAware ADS-B
Wed 11:22:09 PM 40.7120 -85.3190 130° Southeast 555 639 23,000  Level FlightAware ADS-B
Wed 11:22:45 PM 40.6620 -85.2390 129° Southeast 555 639 23,000  Level FlightAware ADS-B
Wed 11:23:09 PM 40.6280 -85.1860 130° Southeast 555 639 23,000 -6,514 Level FlightAware ADS-B
Wed 11:23:55 PM 40.5461 -85.1267 130° Southeast 412 474 15,400 -7,869 Descending Indianapolis Center
Wed 11:24:10 PM 40.5267 -85.0983 132° Southeast 418 481 15,000 -1,667 Descending Indianapolis Center
Wed 11:24:13 PM 40.5222 -85.0944 146° Southeast 409 471 14,900 -1,574 Descending Indianapolis Center
Wed 11:25:11 PM 40.4503 -84.9933 133° Southeast 411 473 13,400 -1,574 Descending Indianapolis Center
Wed 11:25:14 PM 40.4461 -84.9858 126° Southeast 402 463 13,300 -2,032 Descending Indianapolis Center
Wed 11:26:13 PM 40.3794 -84.8950 134° Southeast 399 459 11,300 -2,000 Descending Indianapolis Center
Wed 11:26:14 PM 40.3767 -84.8900 126° Southeast 367 422 11,300 -787 Level Indianapolis Center
Wed 11:27:14 PM 40.3122 -84.8028 134° Southeast 375 432 10,500 -984 Descending Indianapolis Center
Wed 11:27:15 PM 40.3053 -84.7939 136° Southeast 335 386 10,300 -1,355 Descending Indianapolis Center
Wed 11:28:16 PM 40.2467 -84.7142 134° Southeast 291 335 9,100 -893 Descending Indianapolis Center
Wed 11:29:16 PM 40.2006 -84.6489 133° Southeast 298 343 8,500 -992 Descending Indianapolis Center
Wed 11:30:17 PM 40.1533 -84.5675 127° Southeast 244 281 7,100 -1,190 Descending Indianapolis Center
Wed 11:31:17 PM 40.1261 -84.4886 114° Southeast 240 276 6,100 -885 Descending Indianapolis Center
Wed 11:31:18 PM 40.1294 -84.4994 292° West 248 285 6,200 -492 Climbing Indianapolis Center
Wed 11:32:18 PM 40.1003 -84.4153 114° Southeast 218 251 5,600 -492 Descending Indianapolis Center
Wed 11:32:19 PM 40.1047 -84.4211 315° West 241 277 5,700 -1,180 Climbing Indianapolis Center
Wed 11:33:19 PM 40.0783 -84.3456 115° Southeast 199 229 4,400 -1,279 Descending Indianapolis Center
Wed 11:33:20 PM 40.0775 -84.3425 110° East 212 244 4,400 -800 Level Indianapolis Center
Wed 11:34:19 PM 40.0556 -84.2811 115° Southeast 196 226 3,600 -787 Descending Indianapolis Center
Wed 11:34:21 PM 40.0547 -84.2775 107° East 203 234 3,600 -590 Level Indianapolis Center
Wed 11:35:20 PM 40.0283 -84.2214 122° Southeast 192 221 3,000 -590 Descending Indianapolis Center
Wed 11:35:22 PM 40.0283 -84.2172 90° East 198 228 3,000 -590 Level Indianapolis Center
Wed 11:36:21 PM 39.9828 -84.2133 176° South 148 170 2,400 -590 Descending Indianapolis Center
Wed 11:36:23 PM 39.9842 -84.2144 328° Northwest 172 198 2,400 -800 Level Indianapolis Center
Wed 11:37:21 PM 39.9428 -84.2144 180° South 141 162 1,600 -787 Descending Indianapolis Center
Wed 11:37:24 PM 39.9439 -84.2119 60° Northeast 156 180 1,600  Level Indianapolis Center

Login

Don't have an account? Register now (free) for customized features, flight alerts, and more!